アピア の空港の天気 - METARとTAF

ファレオロ国際空港(サモア) ( NSFA / APW ) - サモア アピア
飛行場実況気象(Metar)
観測時間08/18 00:00 WSST (08/17 11:00 UTC)
風向・風速東 3m/s
視程10km以上
天気現象
少しの雲 雲底高度 850m
気温24℃
湿度94%
気圧1013hPa
METARNSFA 171100Z 10005KT 9999 FEW028 24/23 Q1013 RMK NIL
過去の天気等 Google飛行場航空写真 Wunderground天気予報

過去48時間のMETAR

飛行場予報(TAF)
発表時間: 8/18 00:24 WSST (8/17 11:24 UTC)
予報対象時間: 18日1時 WSST ~ 19日1時 WSST
風向・風速東 3m/s
視程10km以上
天気現象弱いしゅう雨
少しの雲 雲底高度 850m
全天の8割程度の雲 雲底高度 3050m
18日1時 WSST ~ 18日19時 WSST に 確率 40% で一時的に
視程5000m
天気現象雷雨
全天の8割程度の雲 雲底高度 460m
少しの積乱雲 雲底高度 520m
TAF NSFA 171124Z 1712/1812 09005KT 9999 -SHRA FEW028 BKN100
PROB40 TEMPO 1712/1806 5000 TSRA BKN015 FEW017CB